sensor_id;sensor_type;location;lat;lon;timestamp;P1;durP1;ratioP1;P2;durP2;ratioP2
75858;SDS011;64504;51.308;8.620;2023-04-08T00:01:01;18.75;;;13.52;;
75858;SDS011;64504;51.308;8.620;2023-04-08T00:03:27;14.35;;;12.77;;
75858;SDS011;64504;51.308;8.620;2023-04-08T00:05:52;20.73;;;14.23;;
75858;SDS011;64504;51.308;8.620;2023-04-08T00:08:18;23.38;;;15.13;;
75858;SDS011;64504;51.308;8.620;2023-04-08T00:10:43;17.67;;;15.20;;
75858;SDS011;64504;51.308;8.620;2023-04-08T00:13:08;23.02;;;18.17;;
75858;SDS011;64504;51.308;8.620;2023-04-08T00:15:35;18.00;;;15.63;;
75858;SDS011;64504;51.308;8.620;2023-04-08T00:18:00;21.90;;;16.48;;
75858;SDS011;64504;51.308;8.620;2023-04-08T00:20:26;18.70;;;15.40;;
75858;SDS011;64504;51.308;8.620;2023-04-08T00:22:51;18.55;;;14.23;;
75858;SDS011;64504;51.308;8.620;2023-04-08T00:25:17;16.00;;;14.32;;
75858;SDS011;64504;51.308;8.620;2023-04-08T00:27:42;19.70;;;14.27;;
75858;SDS011;64504;51.308;8.620;2023-04-08T00:30:08;14.32;;;12.90;;
75858;SDS011;64504;51.308;8.620;2023-04-08T00:32:38;18.33;;;12.63;;
75858;SDS011;64504;51.308;8.620;2023-04-08T00:35:03;17.92;;;13.85;;
75858;SDS011;64504;51.308;8.620;2023-04-08T00:37:29;13.77;;;12.40;;
75858;SDS011;64504;51.308;8.620;2023-04-08T00:39:55;18.15;;;13.43;;
75858;SDS011;64504;51.308;8.620;2023-04-08T00:42:21;15.88;;;12.88;;
75858;SDS011;64504;51.308;8.620;2023-04-08T00:44:55;19.33;;;15.27;;
75858;SDS011;64504;51.308;8.620;2023-04-08T00:47:21;16.00;;;14.43;;
75858;SDS011;64504;51.308;8.620;2023-04-08T00:49:47;21.20;;;15.60;;
75858;SDS011;64504;51.308;8.620;2023-04-08T00:52:16;22.27;;;16.52;;
75858;SDS011;64504;51.308;8.620;2023-04-08T00:54:43;20.92;;;16.55;;
75858;SDS011;64504;51.308;8.620;2023-04-08T00:57:08;20.25;;;17.20;;
75858;SDS011;64504;51.308;8.620;2023-04-08T00:59:34;24.45;;;17.95;;
75858;SDS011;64504;51.308;8.620;2023-04-08T01:07:26;17.65;;;12.20;;
75858;SDS011;64504;51.308;8.620;2023-04-08T01:12:28;30.50;;;16.92;;
75858;SDS011;64504;51.308;8.620;2023-04-08T01:15:03;21.02;;;16.08;;
75858;SDS011;64504;51.308;8.620;2023-04-08T01:17:31;21.35;;;16.02;;
75858;SDS011;64504;51.308;8.620;2023-04-08T01:20:09;20.17;;;15.52;;
75858;SDS011;64504;51.308;8.620;2023-04-08T01:22:57;15.63;;;12.85;;
75858;SDS011;64504;51.308;8.620;2023-04-08T01:25:33;17.05;;;14.23;;
75858;SDS011;64504;51.308;8.620;2023-04-08T01:27:59;16.58;;;14.13;;
75858;SDS011;64504;51.308;8.620;2023-04-08T01:30:26;19.58;;;14.70;;
75858;SDS011;64504;51.308;8.620;2023-04-08T01:35:23;16.83;;;13.75;;
75858;SDS011;64504;51.308;8.620;2023-04-08T01:37:49;16.42;;;13.88;;
75858;SDS011;64504;51.308;8.620;2023-04-08T01:40:17;16.52;;;13.95;;
75858;SDS011;64504;51.308;8.620;2023-04-08T01:42:43;16.52;;;14.05;;
75858;SDS011;64504;51.308;8.620;2023-04-08T01:45:10;17.55;;;14.55;;
75858;SDS011;64504;51.308;8.620;2023-04-08T01:47:39;14.70;;;11.98;;
75858;SDS011;64504;51.308;8.620;2023-04-08T01:50:05;15.52;;;13.88;;
75858;SDS011;64504;51.308;8.620;2023-04-08T01:52:32;27.02;;;18.45;;
75858;SDS011;64504;51.308;8.620;2023-04-08T01:55:00;18.00;;;15.25;;
75858;SDS011;64504;51.308;8.620;2023-04-08T01:57:31;20.60;;;14.95;;
75858;SDS011;64504;51.308;8.620;2023-04-08T02:00:02;21.40;;;15.68;;
75858;SDS011;64504;51.308;8.620;2023-04-08T02:02:31;17.35;;;15.07;;
75858;SDS011;64504;51.308;8.620;2023-04-08T02:04:57;16.65;;;14.25;;
75858;SDS011;64504;51.308;8.620;2023-04-08T02:07:22;16.35;;;13.52;;
75858;SDS011;64504;51.308;8.620;2023-04-08T02:09:48;18.98;;;15.70;;
75858;SDS011;64504;51.308;8.620;2023-04-08T02:12:14;16.52;;;12.35;;
75858;SDS011;64504;51.308;8.620;2023-04-08T02:14:40;14.25;;;12.85;;
75858;SDS011;64504;51.308;8.620;2023-04-08T02:17:12;15.43;;;13.60;;
75858;SDS011;64504;51.308;8.620;2023-04-08T02:20:02;17.98;;;13.63;;
75858;SDS011;64504;51.308;8.620;2023-04-08T02:25:09;19.58;;;15.98;;
75858;SDS011;64504;51.308;8.620;2023-04-08T02:27:38;24.08;;;15.20;;
75858;SDS011;64504;51.308;8.620;2023-04-08T02:30:05;17.73;;;15.52;;
75858;SDS011;64504;51.308;8.620;2023-04-08T02:32:32;19.90;;;16.02;;
75858;SDS011;64504;51.308;8.620;2023-04-08T02:35:00;25.00;;;16.85;;
75858;SDS011;64504;51.308;8.620;2023-04-08T02:37:29;15.77;;;13.93;;
75858;SDS011;64504;51.308;8.620;2023-04-08T02:39:56;28.35;;;18.08;;
75858;SDS011;64504;51.308;8.620;2023-04-08T02:42:22;22.70;;;15.73;;
75858;SDS011;64504;51.308;8.620;2023-04-08T02:44:47;24.63;;;17.83;;
75858;SDS011;64504;51.308;8.620;2023-04-08T02:47:13;20.65;;;16.63;;
75858;SDS011;64504;51.308;8.620;2023-04-08T02:49:38;24.30;;;19.08;;
75858;SDS011;64504;51.308;8.620;2023-04-08T02:52:04;23.38;;;17.90;;
75858;SDS011;64504;51.308;8.620;2023-04-08T02:54:29;20.65;;;15.40;;
75858;SDS011;64504;51.308;8.620;2023-04-08T02:56:55;21.65;;;17.95;;
75858;SDS011;64504;51.308;8.620;2023-04-08T02:59:20;19.15;;;16.58;;
75858;SDS011;64504;51.308;8.620;2023-04-08T03:01:45;21.33;;;16.77;;
75858;SDS011;64504;51.308;8.620;2023-04-08T03:04:15;20.15;;;14.77;;
75858;SDS011;64504;51.308;8.620;2023-04-08T03:06:40;20.60;;;16.60;;
75858;SDS011;64504;51.308;8.620;2023-04-08T03:09:07;15.70;;;13.85;;
75858;SDS011;64504;51.308;8.620;2023-04-08T03:11:33;16.50;;;13.82;;
75858;SDS011;64504;51.308;8.620;2023-04-08T03:13:59;18.52;;;14.55;;
75858;SDS011;64504;51.308;8.620;2023-04-08T03:16:25;17.77;;;15.27;;
75858;SDS011;64504;51.308;8.620;2023-04-08T03:18:50;19.42;;;12.45;;
75858;SDS011;64504;51.308;8.620;2023-04-08T03:21:16;24.80;;;16.08;;
75858;SDS011;64504;51.308;8.620;2023-04-08T03:23:42;19.67;;;15.07;;
75858;SDS011;64504;51.308;8.620;2023-04-08T03:26:08;17.98;;;15.52;;
75858;SDS011;64504;51.308;8.620;2023-04-08T03:28:33;18.95;;;13.98;;
75858;SDS011;64504;51.308;8.620;2023-04-08T03:30:58;16.88;;;13.98;;
75858;SDS011;64504;51.308;8.620;2023-04-08T03:33:25;18.80;;;16.77;;
75858;SDS011;64504;51.308;8.620;2023-04-08T03:35:55;25.33;;;14.55;;
75858;SDS011;64504;51.308;8.620;2023-04-08T03:38:23;17.35;;;15.57;;
75858;SDS011;64504;51.308;8.620;2023-04-08T03:40:48;17.52;;;15.73;;
75858;SDS011;64504;51.308;8.620;2023-04-08T03:43:13;17.75;;;15.27;;
75858;SDS011;64504;51.308;8.620;2023-04-08T03:45:40;23.92;;;12.90;;
75858;SDS011;64504;51.308;8.620;2023-04-08T03:48:06;16.85;;;15.13;;
75858;SDS011;64504;51.308;8.620;2023-04-08T03:50:34;15.15;;;13.55;;
75858;SDS011;64504;51.308;8.620;2023-04-08T03:52:59;16.38;;;14.20;;
75858;SDS011;64504;51.308;8.620;2023-04-08T03:55:25;20.05;;;14.75;;
75858;SDS011;64504;51.308;8.620;2023-04-08T03:57:52;16.92;;;13.98;;
75858;SDS011;64504;51.308;8.620;2023-04-08T04:00:17;19.40;;;15.32;;
75858;SDS011;64504;51.308;8.620;2023-04-08T04:02:45;14.80;;;12.40;;
75858;SDS011;64504;51.308;8.620;2023-04-08T04:05:13;20.17;;;14.38;;
75858;SDS011;64504;51.308;8.620;2023-04-08T04:10:13;16.65;;;13.95;;
75858;SDS011;64504;51.308;8.620;2023-04-08T04:12:38;16.45;;;13.68;;
75858;SDS011;64504;51.308;8.620;2023-04-08T04:15:04;18.90;;;14.40;;
75858;SDS011;64504;51.308;8.620;2023-04-08T04:17:32;22.80;;;16.55;;
75858;SDS011;64504;51.308;8.620;2023-04-08T04:19:58;20.40;;;14.25;;
75858;SDS011;64504;51.308;8.620;2023-04-08T04:22:26;15.10;;;13.60;;
75858;SDS011;64504;51.308;8.620;2023-04-08T04:24:54;20.15;;;14.48;;
75858;SDS011;64504;51.308;8.620;2023-04-08T04:27:20;16.73;;;14.00;;
75858;SDS011;64504;51.308;8.620;2023-04-08T04:29:47;18.15;;;13.68;;
75858;SDS011;64504;51.308;8.620;2023-04-08T04:37:13;17.45;;;15.23;;
75858;SDS011;64504;51.308;8.620;2023-04-08T04:39:39;18.65;;;14.52;;
75858;SDS011;64504;51.308;8.620;2023-04-08T04:42:08;20.95;;;15.13;;
75858;SDS011;64504;51.308;8.620;2023-04-08T04:44:35;23.30;;;15.75;;
75858;SDS011;64504;51.308;8.620;2023-04-08T04:47:01;22.98;;;14.00;;
75858;SDS011;64504;51.308;8.620;2023-04-08T04:49:26;16.42;;;13.43;;
75858;SDS011;64504;51.308;8.620;2023-04-08T04:51:51;17.08;;;15.00;;
75858;SDS011;64504;51.308;8.620;2023-04-08T04:54:18;16.52;;;14.10;;
75858;SDS011;64504;51.308;8.620;2023-04-08T04:56:43;17.60;;;13.82;;
75858;SDS011;64504;51.308;8.620;2023-04-08T04:59:08;15.73;;;14.13;;
75858;SDS011;64504;51.308;8.620;2023-04-08T05:01:34;22.52;;;14.05;;
75858;SDS011;64504;51.308;8.620;2023-04-08T05:04:00;20.50;;;14.73;;
75858;SDS011;64504;51.308;8.620;2023-04-08T05:06:25;17.42;;;13.05;;
75858;SDS011;64504;51.308;8.620;2023-04-08T05:08:51;14.15;;;12.68;;
75858;SDS011;64504;51.308;8.620;2023-04-08T05:11:17;17.80;;;14.60;;
75858;SDS011;64504;51.308;8.620;2023-04-08T05:13:43;18.35;;;13.52;;
75858;SDS011;64504;51.308;8.620;2023-04-08T05:16:09;18.10;;;14.52;;
75858;SDS011;64504;51.308;8.620;2023-04-08T05:18:35;17.75;;;14.30;;
75858;SDS011;64504;51.308;8.620;2023-04-08T05:21:01;22.77;;;14.20;;
75858;SDS011;64504;51.308;8.620;2023-04-08T05:23:26;17.80;;;14.93;;
75858;SDS011;64504;51.308;8.620;2023-04-08T05:25:52;21.48;;;14.68;;
75858;SDS011;64504;51.308;8.620;2023-04-08T05:28:17;17.63;;;14.15;;
75858;SDS011;64504;51.308;8.620;2023-04-08T05:30:47;15.07;;;13.43;;
75858;SDS011;64504;51.308;8.620;2023-04-08T05:33:13;18.13;;;13.65;;
75858;SDS011;64504;51.308;8.620;2023-04-08T05:35:38;18.67;;;13.60;;
75858;SDS011;64504;51.308;8.620;2023-04-08T05:38:04;18.05;;;14.52;;
75858;SDS011;64504;51.308;8.620;2023-04-08T05:40:30;16.42;;;13.93;;
75858;SDS011;64504;51.308;8.620;2023-04-08T05:42:56;16.27;;;14.57;;
75858;SDS011;64504;51.308;8.620;2023-04-08T05:45:21;14.25;;;12.70;;
75858;SDS011;64504;51.308;8.620;2023-04-08T05:47:52;16.60;;;13.95;;
75858;SDS011;64504;51.308;8.620;2023-04-08T05:50:19;17.15;;;15.35;;
75858;SDS011;64504;51.308;8.620;2023-04-08T05:52:53;17.52;;;15.70;;
75858;SDS011;64504;51.308;8.620;2023-04-08T05:55:21;18.95;;;14.77;;
75858;SDS011;64504;51.308;8.620;2023-04-08T05:57:46;17.00;;;13.75;;
75858;SDS011;64504;51.308;8.620;2023-04-08T06:00:12;15.43;;;13.77;;
75858;SDS011;64504;51.308;8.620;2023-04-08T06:02:38;15.68;;;14.05;;
75858;SDS011;64504;51.308;8.620;2023-04-08T06:07:33;19.77;;;14.77;;
75858;SDS011;64504;51.308;8.620;2023-04-08T06:09:59;17.73;;;14.80;;
75858;SDS011;64504;51.308;8.620;2023-04-08T06:12:24;17.30;;;13.13;;
75858;SDS011;64504;51.308;8.620;2023-04-08T06:14:53;17.63;;;15.50;;
75858;SDS011;64504;51.308;8.620;2023-04-08T06:17:25;19.30;;;15.13;;
75858;SDS011;64504;51.308;8.620;2023-04-08T06:19:52;17.40;;;13.77;;
75858;SDS011;64504;51.308;8.620;2023-04-08T06:22:19;14.57;;;11.90;;
75858;SDS011;64504;51.308;8.620;2023-04-08T06:24:52;16.92;;;12.60;;
75858;SDS011;64504;51.308;8.620;2023-04-08T06:27:19;17.63;;;14.73;;
75858;SDS011;64504;51.308;8.620;2023-04-08T06:29:45;16.48;;;11.60;;
75858;SDS011;64504;51.308;8.620;2023-04-08T06:32:11;25.60;;;19.75;;
75858;SDS011;64504;51.308;8.620;2023-04-08T06:34:37;21.85;;;14.57;;
75858;SDS011;64504;51.308;8.620;2023-04-08T06:37:02;14.98;;;12.88;;
75858;SDS011;64504;51.308;8.620;2023-04-08T06:39:27;18.25;;;13.05;;
75858;SDS011;64504;51.308;8.620;2023-04-08T06:41:53;18.48;;;16.20;;
75858;SDS011;64504;51.308;8.620;2023-04-08T06:44:18;19.55;;;12.73;;
75858;SDS011;64504;51.308;8.620;2023-04-08T06:46:44;18.63;;;15.63;;
75858;SDS011;64504;51.308;8.620;2023-04-08T06:49:09;14.80;;;13.35;;
75858;SDS011;64504;51.308;8.620;2023-04-08T06:51:35;18.45;;;13.75;;
75858;SDS011;64504;51.308;8.620;2023-04-08T06:54:00;19.13;;;14.93;;
75858;SDS011;64504;51.308;8.620;2023-04-08T06:56:25;18.98;;;16.80;;
75858;SDS011;64504;51.308;8.620;2023-04-08T06:58:51;19.60;;;15.70;;
75858;SDS011;64504;51.308;8.620;2023-04-08T07:01:17;18.10;;;15.77;;
75858;SDS011;64504;51.308;8.620;2023-04-08T07:03:42;21.23;;;18.85;;
75858;SDS011;64504;51.308;8.620;2023-04-08T07:06:08;31.60;;;20.13;;
75858;SDS011;64504;51.308;8.620;2023-04-08T07:08:33;21.23;;;17.17;;
75858;SDS011;64504;51.308;8.620;2023-04-08T07:10:59;19.17;;;16.90;;
75858;SDS011;64504;51.308;8.620;2023-04-08T07:13:26;19.25;;;16.90;;
75858;SDS011;64504;51.308;8.620;2023-04-08T07:15:51;20.50;;;17.38;;
75858;SDS011;64504;51.308;8.620;2023-04-08T07:18:17;22.33;;;16.48;;
75858;SDS011;64504;51.308;8.620;2023-04-08T07:20:42;21.60;;;16.80;;
75858;SDS011;64504;51.308;8.620;2023-04-08T07:23:09;19.75;;;16.33;;
75858;SDS011;64504;51.308;8.620;2023-04-08T07:25:34;25.88;;;18.58;;
75858;SDS011;64504;51.308;8.620;2023-04-08T07:28:00;24.52;;;18.00;;
75858;SDS011;64504;51.308;8.620;2023-04-08T07:30:27;21.02;;;17.90;;
75858;SDS011;64504;51.308;8.620;2023-04-08T07:32:52;20.95;;;17.30;;
75858;SDS011;64504;51.308;8.620;2023-04-08T07:35:23;17.90;;;14.50;;
75858;SDS011;64504;51.308;8.620;2023-04-08T07:37:54;17.20;;;13.98;;
75858;SDS011;64504;51.308;8.620;2023-04-08T07:40:21;21.10;;;17.48;;
75858;SDS011;64504;51.308;8.620;2023-04-08T07:42:52;24.80;;;13.73;;
75858;SDS011;64504;51.308;8.620;2023-04-08T07:45:22;18.20;;;14.23;;
75858;SDS011;64504;51.308;8.620;2023-04-08T07:50:19;17.13;;;15.32;;
75858;SDS011;64504;51.308;8.620;2023-04-08T07:52:45;18.08;;;14.98;;
75858;SDS011;64504;51.308;8.620;2023-04-08T07:55:12;19.40;;;15.80;;
75858;SDS011;64504;51.308;8.620;2023-04-08T07:57:45;17.70;;;13.73;;
75858;SDS011;64504;51.308;8.620;2023-04-08T08:00:14;15.10;;;13.57;;
75858;SDS011;64504;51.308;8.620;2023-04-08T08:02:47;17.83;;;14.88;;
75858;SDS011;64504;51.308;8.620;2023-04-08T08:05:12;22.52;;;16.83;;
75858;SDS011;64504;51.308;8.620;2023-04-08T08:07:38;13.85;;;11.80;;
75858;SDS011;64504;51.308;8.620;2023-04-08T08:10:03;15.95;;;13.15;;
75858;SDS011;64504;51.308;8.620;2023-04-08T08:12:30;13.07;;;11.75;;
75858;SDS011;64504;51.308;8.620;2023-04-08T08:14:55;15.93;;;11.98;;
75858;SDS011;64504;51.308;8.620;2023-04-08T08:17:25;18.05;;;13.23;;
75858;SDS011;64504;51.308;8.620;2023-04-08T08:19:56;16.58;;;13.77;;
75858;SDS011;64504;51.308;8.620;2023-04-08T08:22:22;12.88;;;11.30;;
75858;SDS011;64504;51.308;8.620;2023-04-08T08:24:55;15.38;;;11.05;;
75858;SDS011;64504;51.308;8.620;2023-04-08T08:29:52;11.05;;;9.93;;
75858;SDS011;64504;51.308;8.620;2023-04-08T08:32:18;11.70;;;10.60;;
75858;SDS011;64504;51.308;8.620;2023-04-08T08:34:51;13.63;;;9.93;;
75858;SDS011;64504;51.308;8.620;2023-04-08T08:37:17;12.43;;;8.93;;
75858;SDS011;64504;51.308;8.620;2023-04-08T08:39:42;10.57;;;7.35;;
75858;SDS011;64504;51.308;8.620;2023-04-08T08:42:20;10.25;;;7.75;;
75858;SDS011;64504;51.308;8.620;2023-04-08T08:44:46;9.20;;;7.05;;
75858;SDS011;64504;51.308;8.620;2023-04-08T08:47:13;8.35;;;7.10;;
75858;SDS011;64504;51.308;8.620;2023-04-08T08:49:40;9.13;;;6.75;;
75858;SDS011;64504;51.308;8.620;2023-04-08T08:52:07;11.50;;;6.18;;
75858;SDS011;64504;51.308;8.620;2023-04-08T08:54:34;11.75;;;7.72;;
75858;SDS011;64504;51.308;8.620;2023-04-08T08:56:59;8.60;;;6.88;;
75858;SDS011;64504;51.308;8.620;2023-04-08T08:59:28;9.10;;;7.88;;
75858;SDS011;64504;51.308;8.620;2023-04-08T09:02:01;10.02;;;7.53;;
75858;SDS011;64504;51.308;8.620;2023-04-08T09:04:30;11.68;;;10.07;;
75858;SDS011;64504;51.308;8.620;2023-04-08T09:07:08;19.58;;;9.40;;
75858;SDS011;64504;51.308;8.620;2023-04-08T09:09:47;13.13;;;10.63;;
75858;SDS011;64504;51.308;8.620;2023-04-08T09:12:13;12.05;;;10.10;;
75858;SDS011;64504;51.308;8.620;2023-04-08T09:14:39;14.75;;;10.00;;
75858;SDS011;64504;51.308;8.620;2023-04-08T09:17:05;15.05;;;10.88;;
75858;SDS011;64504;51.308;8.620;2023-04-08T09:19:31;19.15;;;9.63;;
75858;SDS011;64504;51.308;8.620;2023-04-08T09:22:08;17.77;;;9.00;;
75858;SDS011;64504;51.308;8.620;2023-04-08T09:24:36;10.10;;;8.95;;
75858;SDS011;64504;51.308;8.620;2023-04-08T09:27:03;13.07;;;11.55;;
75858;SDS011;64504;51.308;8.620;2023-04-08T09:29:34;14.38;;;8.95;;
75858;SDS011;64504;51.308;8.620;2023-04-08T09:32:01;16.08;;;12.38;;
75858;SDS011;64504;51.308;8.620;2023-04-08T09:34:27;11.52;;;10.32;;
75858;SDS011;64504;51.308;8.620;2023-04-08T09:36:53;14.27;;;10.65;;
75858;SDS011;64504;51.308;8.620;2023-04-08T09:39:20;14.38;;;10.77;;
75858;SDS011;64504;51.308;8.620;2023-04-08T09:41:49;16.10;;;12.15;;
75858;SDS011;64504;51.308;8.620;2023-04-08T09:44:15;16.23;;;10.60;;
75858;SDS011;64504;51.308;8.620;2023-04-08T09:49:28;15.93;;;10.68;;
75858;SDS011;64504;51.308;8.620;2023-04-08T09:52:14;11.90;;;10.73;;
75858;SDS011;64504;51.308;8.620;2023-04-08T09:55:20;15.20;;;10.20;;
75858;SDS011;64504;51.308;8.620;2023-04-08T09:57:40;18.48;;;12.77;;
75858;SDS011;64504;51.308;8.620;2023-04-08T10:00:13;15.85;;;11.48;;
75858;SDS011;64504;51.308;8.620;2023-04-08T10:05:24;15.77;;;11.75;;
75858;SDS011;64504;51.308;8.620;2023-04-08T10:07:51;16.77;;;12.77;;
75858;SDS011;64504;51.308;8.620;2023-04-08T10:10:16;20.33;;;13.27;;
75858;SDS011;64504;51.308;8.620;2023-04-08T10:12:42;18.10;;;15.02;;
75858;SDS011;64504;51.308;8.620;2023-04-08T10:17:53;22.05;;;13.95;;
75858;SDS011;64504;51.308;8.620;2023-04-08T10:23:16;16.67;;;14.68;;
75858;SDS011;64504;51.308;8.620;2023-04-08T10:25:44;20.90;;;15.88;;
75858;SDS011;64504;51.308;8.620;2023-04-08T10:33:17;23.90;;;14.32;;
75858;SDS011;64504;51.308;8.620;2023-04-08T10:35:46;18.23;;;13.85;;
75858;SDS011;64504;51.308;8.620;2023-04-08T10:38:14;16.77;;;12.80;;
75858;SDS011;64504;51.308;8.620;2023-04-08T10:40:40;17.17;;;14.57;;
75858;SDS011;64504;51.308;8.620;2023-04-08T10:43:07;14.73;;;12.82;;
75858;SDS011;64504;51.308;8.620;2023-04-08T10:45:33;18.70;;;14.35;;
75858;SDS011;64504;51.308;8.620;2023-04-08T10:53:26;19.83;;;12.95;;
75858;SDS011;64504;51.308;8.620;2023-04-08T10:56:13;16.10;;;13.27;;
75858;SDS011;64504;51.308;8.620;2023-04-08T10:58:50;17.75;;;13.68;;
75858;SDS011;64504;51.308;8.620;2023-04-08T11:01:16;17.83;;;13.30;;
75858;SDS011;64504;51.308;8.620;2023-04-08T11:03:43;15.15;;;12.05;;
75858;SDS011;64504;51.308;8.620;2023-04-08T11:06:09;14.23;;;11.65;;
75858;SDS011;64504;51.308;8.620;2023-04-08T11:08:35;17.55;;;14.50;;
75858;SDS011;64504;51.308;8.620;2023-04-08T11:11:01;15.48;;;12.77;;
75858;SDS011;64504;51.308;8.620;2023-04-08T11:13:27;16.15;;;13.82;;
75858;SDS011;64504;51.308;8.620;2023-04-08T11:15:53;15.27;;;12.75;;
75858;SDS011;64504;51.308;8.620;2023-04-08T11:18:19;16.50;;;11.35;;
75858;SDS011;64504;51.308;8.620;2023-04-08T11:20:48;12.85;;;11.38;;
75858;SDS011;64504;51.308;8.620;2023-04-08T11:23:15;11.95;;;10.85;;
75858;SDS011;64504;51.308;8.620;2023-04-08T11:25:42;15.55;;;10.82;;
75858;SDS011;64504;51.308;8.620;2023-04-08T11:28:09;11.68;;;9.88;;
75858;SDS011;64504;51.308;8.620;2023-04-08T11:30:36;13.80;;;11.75;;
75858;SDS011;64504;51.308;8.620;2023-04-08T11:33:03;18.02;;;12.15;;
75858;SDS011;64504;51.308;8.620;2023-04-08T11:35:28;13.57;;;12.23;;
75858;SDS011;64504;51.308;8.620;2023-04-08T11:37:55;16.65;;;11.93;;
75858;SDS011;64504;51.308;8.620;2023-04-08T11:40:21;13.93;;;10.27;;
75858;SDS011;64504;51.308;8.620;2023-04-08T11:42:51;13.68;;;11.60;;
75858;SDS011;64504;51.308;8.620;2023-04-08T11:45:19;16.92;;;11.93;;
75858;SDS011;64504;51.308;8.620;2023-04-08T11:47:45;12.73;;;11.00;;
75858;SDS011;64504;51.308;8.620;2023-04-08T11:50:12;15.23;;;11.52;;
75858;SDS011;64504;51.308;8.620;2023-04-08T11:52:47;10.63;;;8.88;;
75858;SDS011;64504;51.308;8.620;2023-04-08T11:55:29;10.85;;;8.57;;
75858;SDS011;64504;51.308;8.620;2023-04-08T11:58:00;9.02;;;8.18;;
75858;SDS011;64504;51.308;8.620;2023-04-08T12:00:27;12.98;;;9.65;;
75858;SDS011;64504;51.308;8.620;2023-04-08T12:02:52;10.45;;;9.35;;
75858;SDS011;64504;51.308;8.620;2023-04-08T12:05:18;17.25;;;9.52;;
75858;SDS011;64504;51.308;8.620;2023-04-08T12:07:43;13.93;;;10.80;;
75858;SDS011;64504;51.308;8.620;2023-04-08T12:10:09;9.32;;;8.35;;
75858;SDS011;64504;51.308;8.620;2023-04-08T12:12:38;10.77;;;9.27;;
75858;SDS011;64504;51.308;8.620;2023-04-08T12:15:04;9.60;;;8.65;;
75858;SDS011;64504;51.308;8.620;2023-04-08T12:20:01;9.88;;;8.45;;
75858;SDS011;64504;51.308;8.620;2023-04-08T12:22:28;12.43;;;9.70;;
75858;SDS011;64504;51.308;8.620;2023-04-08T12:24:56;8.60;;;7.72;;
75858;SDS011;64504;51.308;8.620;2023-04-08T12:27:24;15.70;;;9.45;;
75858;SDS011;64504;51.308;8.620;2023-04-08T12:29:50;12.07;;;8.77;;
75858;SDS011;64504;51.308;8.620;2023-04-08T12:32:15;10.77;;;8.02;;
75858;SDS011;64504;51.308;8.620;2023-04-08T12:34:41;12.18;;;8.75;;
75858;SDS011;64504;51.308;8.620;2023-04-08T12:37:08;11.13;;;8.82;;
75858;SDS011;64504;51.308;8.620;2023-04-08T12:39:34;10.13;;;7.72;;
75858;SDS011;64504;51.308;8.620;2023-04-08T12:42:01;13.10;;;8.80;;
75858;SDS011;64504;51.308;8.620;2023-04-08T12:44:26;12.98;;;10.93;;
75858;SDS011;64504;51.308;8.620;2023-04-08T12:46:53;9.55;;;7.95;;
75858;SDS011;64504;51.308;8.620;2023-04-08T12:49:20;12.13;;;10.85;;
75858;SDS011;64504;51.308;8.620;2023-04-08T12:51:46;13.10;;;10.15;;
75858;SDS011;64504;51.308;8.620;2023-04-08T12:54:11;16.02;;;11.45;;
75858;SDS011;64504;51.308;8.620;2023-04-08T12:56:37;16.13;;;12.40;;
75858;SDS011;64504;51.308;8.620;2023-04-08T12:59:03;12.68;;;10.75;;
75858;SDS011;64504;51.308;8.620;2023-04-08T13:01:30;15.50;;;12.43;;
75858;SDS011;64504;51.308;8.620;2023-04-08T13:03:56;14.82;;;11.93;;
75858;SDS011;64504;51.308;8.620;2023-04-08T13:06:22;14.13;;;10.93;;
75858;SDS011;64504;51.308;8.620;2023-04-08T13:08:50;13.20;;;11.80;;
75858;SDS011;64504;51.308;8.620;2023-04-08T13:11:15;11.90;;;10.80;;
75858;SDS011;64504;51.308;8.620;2023-04-08T13:13:41;23.10;;;14.25;;
75858;SDS011;64504;51.308;8.620;2023-04-08T13:16:06;13.55;;;11.82;;
75858;SDS011;64504;51.308;8.620;2023-04-08T13:18:32;15.40;;;13.70;;
75858;SDS011;64504;51.308;8.620;2023-04-08T13:20:58;16.15;;;11.32;;
75858;SDS011;64504;51.308;8.620;2023-04-08T13:23:23;14.45;;;12.43;;
75858;SDS011;64504;51.308;8.620;2023-04-08T13:25:50;13.45;;;11.98;;
75858;SDS011;64504;51.308;8.620;2023-04-08T13:28:16;16.20;;;11.68;;
75858;SDS011;64504;51.308;8.620;2023-04-08T13:30:42;13.85;;;11.35;;
75858;SDS011;64504;51.308;8.620;2023-04-08T13:33:08;12.38;;;10.73;;
75858;SDS011;64504;51.308;8.620;2023-04-08T13:35:33;18.70;;;12.60;;
75858;SDS011;64504;51.308;8.620;2023-04-08T13:37:59;15.50;;;12.25;;
75858;SDS011;64504;51.308;8.620;2023-04-08T13:40:26;17.92;;;12.35;;
75858;SDS011;64504;51.308;8.620;2023-04-08T13:42:52;13.10;;;11.02;;
75858;SDS011;64504;51.308;8.620;2023-04-08T13:45:17;18.58;;;11.98;;
75858;SDS011;64504;51.308;8.620;2023-04-08T13:47:44;14.35;;;12.00;;
75858;SDS011;64504;51.308;8.620;2023-04-08T13:50:09;12.63;;;10.77;;
75858;SDS011;64504;51.308;8.620;2023-04-08T13:52:35;10.73;;;9.65;;
75858;SDS011;64504;51.308;8.620;2023-04-08T13:55:01;13.68;;;10.38;;
75858;SDS011;64504;51.308;8.620;2023-04-08T13:57:26;18.15;;;10.63;;
75858;SDS011;64504;51.308;8.620;2023-04-08T13:59:51;12.25;;;9.90;;
75858;SDS011;64504;51.308;8.620;2023-04-08T14:02:17;15.23;;;11.93;;
75858;SDS011;64504;51.308;8.620;2023-04-08T14:04:44;16.02;;;11.52;;
75858;SDS011;64504;51.308;8.620;2023-04-08T14:07:13;14.63;;;12.60;;
75858;SDS011;64504;51.308;8.620;2023-04-08T14:09:38;17.00;;;11.80;;
75858;SDS011;64504;51.308;8.620;2023-04-08T14:12:03;14.25;;;11.48;;
75858;SDS011;64504;51.308;8.620;2023-04-08T14:17:19;17.45;;;12.48;;
75858;SDS011;64504;51.308;8.620;2023-04-08T14:19:51;13.50;;;11.35;;
75858;SDS011;64504;51.308;8.620;2023-04-08T14:22:27;12.48;;;10.82;;
75858;SDS011;64504;51.308;8.620;2023-04-08T14:24:53;13.32;;;10.90;;
75858;SDS011;64504;51.308;8.620;2023-04-08T14:27:19;14.20;;;10.60;;
75858;SDS011;64504;51.308;8.620;2023-04-08T14:29:45;17.10;;;11.73;;
75858;SDS011;64504;51.308;8.620;2023-04-08T14:32:10;13.52;;;11.30;;
75858;SDS011;64504;51.308;8.620;2023-04-08T14:34:36;16.27;;;11.18;;
75858;SDS011;64504;51.308;8.620;2023-04-08T14:37:01;15.05;;;10.75;;
75858;SDS011;64504;51.308;8.620;2023-04-08T14:39:28;17.30;;;10.98;;
75858;SDS011;64504;51.308;8.620;2023-04-08T14:41:53;12.10;;;10.98;;
75858;SDS011;64504;51.308;8.620;2023-04-08T14:44:21;11.57;;;10.38;;
75858;SDS011;64504;51.308;8.620;2023-04-08T14:46:46;14.15;;;11.38;;
75858;SDS011;64504;51.308;8.620;2023-04-08T14:49:12;11.98;;;9.15;;
75858;SDS011;64504;51.308;8.620;2023-04-08T14:51:40;15.60;;;11.40;;
75858;SDS011;64504;51.308;8.620;2023-04-08T14:54:05;15.85;;;10.93;;
75858;SDS011;64504;51.308;8.620;2023-04-08T14:56:31;14.52;;;10.57;;
75858;SDS011;64504;51.308;8.620;2023-04-08T14:58:57;12.45;;;9.63;;
75858;SDS011;64504;51.308;8.620;2023-04-08T15:01:31;13.30;;;10.43;;
75858;SDS011;64504;51.308;8.620;2023-04-08T15:03:57;13.43;;;9.88;;
75858;SDS011;64504;51.308;8.620;2023-04-08T15:06:30;11.48;;;9.90;;
75858;SDS011;64504;51.308;8.620;2023-04-08T15:08:57;13.25;;;9.32;;
75858;SDS011;64504;51.308;8.620;2023-04-08T15:11:22;16.02;;;10.77;;
75858;SDS011;64504;51.308;8.620;2023-04-08T15:13:48;14.05;;;10.27;;
75858;SDS011;64504;51.308;8.620;2023-04-08T15:16:13;11.43;;;10.07;;
75858;SDS011;64504;51.308;8.620;2023-04-08T15:18:39;15.10;;;11.90;;